Quick Links (Output Below):   Max & Min Temps   /   Climate Reports   /   Zone Forecasts
River Forecasts   /   Forestry Forecasts   /   Aviation Forecasts   /   Radars   /   Features

Terminal Aerodrome Forecast (Monticello)

Pick a Site:
Arkadelphia | El Dorado | Fayetteville | Fort Smith | Harrison | Highfill | Hot Springs | Jonesboro
Little Rock | Monticello | Mountain Home | Pine Bluff | Texarkana
 Forecast 

KLLQ 311121Z 3112/0112 VRB03KT P6SM VCTS FEW015 SCT050CB BKN250
      TEMPO 3112/3114 5SM -SHRA BR BKN050
     FM311500 16007KT P6SM VCTS BKN040CB BKN250
     FM010300 VRB03KT P6SM VCSH BKN050 BKN250=


 Latest METARs (Observations) 
How to Decode METARs
14Z KLLQ 311353Z AUTO 09005KT 10SM CLR 24/21 A2995 RMK AO2 SLP140
         T02440206
         
13Z KLLQ 311253Z AUTO 14005KT 10SM FEW090 21/20 A2993 RMK AO2 SLP134
         T02110200 $
         
12Z KLLQ 311153Z AUTO 00000KT 9SM CLR 21/19 A2995 RMK AO2 RAE15 SLP139
         P0002 60049 70051 T02060194 10211 20200 55001 $
         
11Z KLLQ 311053Z AUTO 05003KT 6SM VCTS -RA BR FEW060 BKN075 OVC110
         20/19 A2994 RMK AO2 LTG DSNT NE TSE11B14E34 SLP133 P0029
         T02000194 $
         
10Z KLLQ 310953Z AUTO 30004KT 3SM +TSRA BR BKN036 BKN043 OVC050 20/19
         A2996 RMK AO2 LTG DSNT S-NW RAB00 TSB50 SLP142 P0018
         T02000189
         
09Z KLLQ 310853Z AUTO 10SM BKN050 BKN070 BKN110 21/19 A2995 RMK AO2
         LTG DSNT SW AND W PRESRR SLP139 T02060189 53002
         
08Z KLLQ 310753Z AUTO 00000KT 10SM FEW070 BKN110 21/19 A2993 RMK AO2
         LTG DSNT W SLP132 T02060189
         
07Z KLLQ 310653Z AUTO 11004KT 10SM FEW055 SCT070 BKN090 21/19 A2993
         RMK AO2 LTG DSNT E TSB08E23 SLP133 T02110194
         
06Z KLLQ 310553Z AUTO 00000KT 10SM VCTS OVC100 21/19 A2995 RMK AO2
         SLP137 60002 T02060189 10250 20206 403220178 56007
         
05Z KLLQ 310453Z AUTO 00000KT 10SM SCT120 21/19 A2995 RMK AO2 SLP137
         T02060189
         
***** Today's Observations (Above) *****


Back to Main Page
http://www.srh.noaa.gov/lzk/qfcst.php

USA.gov is the U.S. government's official web portal to all federal, state and local government web resources and services.